Clarksville, Arkansas
Current Conditions -  °F | °C
As of 12:53 PM on Friday 21 Nov 2014 (Local Time) from KRUE Reporting Station
Haze Haze  
Wind Chill: 42°   Ceiling: 600
Heat Index: 45°   Visibility: 6mi
Dew Point: 42°   Wind: 6mph
Humidity: 90%   Direction: NA
Pressure: 30.24"   Gusts: NA
Location:  35.47°N, 93.47°W
Report Text: KRUE 211853Z AUTO VRB05KT 6SM BR BKN006 OVC011 07/06 A3024 RMK AO2 RAE34 CIG 005V009 SLP236 P0003 T00720056
Loading
Personal Weather Stations






























Interactive Weather Map New forecast layout! Learn more

10-Day Weather Forecast

Advertisements
Track Severe Weather on mobile